Řízení letového provozu České republiky
Letiste: LKPD Aktualizace: 18.08.2018 11:01:06  UTC
 METAR LKPD 18.08. 11:00 ...
METAR LKPD 181100Z 34005KT 270V090 CAVOK 29/11 Q1019 NOSIG RMK BLU BLU=
 TAF LKPD 18.08. 05:00 ...
TAF LKPD 180500Z 1806/1906 34004KT CAVOK      TEMPO 1810/1817 03006KT SCT040TCU=